sensor_id;sensor_type;location;lat;lon;timestamp;pressure;altitude;pressure_sealevel;temperature;humidity
81299;BME280;70766;53.170;18.160;2024-03-02T00:00:55;100693.38;;;7.15;100.00
81299;BME280;70766;53.170;18.160;2024-03-02T00:03:44;100693.66;;;7.15;100.00
81299;BME280;70766;53.170;18.160;2024-03-02T00:06:12;100692.44;;;7.13;100.00
81299;BME280;70766;53.170;18.160;2024-03-02T00:08:40;100689.03;;;7.12;100.00
81299;BME280;70766;53.170;18.160;2024-03-02T00:11:08;100684.05;;;7.10;100.00
81299;BME280;70766;53.170;18.160;2024-03-02T00:13:38;100691.61;;;7.09;100.00
81299;BME280;70766;53.170;18.160;2024-03-02T00:16:07;100688.11;;;7.05;100.00
81299;BME280;70766;53.170;18.160;2024-03-02T00:18:36;100687.42;;;7.09;100.00
81299;BME280;70766;53.170;18.160;2024-03-02T00:21:06;100683.39;;;7.06;100.00
81299;BME280;70766;53.170;18.160;2024-03-02T00:23:38;100686.95;;;7.03;100.00
81299;BME280;70766;53.170;18.160;2024-03-02T00:26:11;100683.19;;;7.01;100.00
81299;BME280;70766;53.170;18.160;2024-03-02T00:28:40;100682.61;;;7.00;100.00
81299;BME280;70766;53.170;18.160;2024-03-02T00:31:12;100679.44;;;7.00;100.00
81299;BME280;70766;53.170;18.160;2024-03-02T00:33:43;100679.33;;;6.99;100.00
81299;BME280;70766;53.170;18.160;2024-03-02T00:36:14;100674.23;;;6.99;100.00
81299;BME280;70766;53.170;18.160;2024-03-02T00:38:49;100676.16;;;6.99;100.00
81299;BME280;70766;53.170;18.160;2024-03-02T00:41:27;100672.70;;;6.97;100.00
81299;BME280;70766;53.170;18.160;2024-03-02T00:44:03;100678.02;;;6.97;100.00
81299;BME280;70766;53.170;18.160;2024-03-02T00:46:35;100673.23;;;6.96;100.00
81299;BME280;70766;53.170;18.160;2024-03-02T00:51:39;100671.21;;;6.87;100.00
81299;BME280;70766;53.170;18.160;2024-03-02T00:54:09;100682.33;;;6.86;100.00
81299;BME280;70766;53.170;18.160;2024-03-02T00:56:38;100685.37;;;6.83;100.00
81299;BME280;70766;53.170;18.160;2024-03-02T00:59:10;100688.45;;;6.84;100.00
81299;BME280;70766;53.170;18.160;2024-03-02T01:01:39;100684.49;;;6.82;100.00
81299;BME280;70766;53.170;18.160;2024-03-02T01:04:07;100688.64;;;6.80;100.00
81299;BME280;70766;53.170;18.160;2024-03-02T01:06:35;100679.44;;;6.80;100.00
81299;BME280;70766;53.170;18.160;2024-03-02T01:09:04;100672.06;;;6.78;100.00
81299;BME280;70766;53.170;18.160;2024-03-02T01:11:32;100662.53;;;6.80;100.00
81299;BME280;70766;53.170;18.160;2024-03-02T01:14:00;100654.36;;;6.78;100.00
81299;BME280;70766;53.170;18.160;2024-03-02T01:16:29;100651.09;;;6.78;100.00
81299;BME280;70766;53.170;18.160;2024-03-02T01:18:57;100650.27;;;6.76;100.00
81299;BME280;70766;53.170;18.160;2024-03-02T01:21:27;100646.98;;;6.75;100.00
81299;BME280;70766;53.170;18.160;2024-03-02T01:23:55;100649.62;;;6.73;100.00
81299;BME280;70766;53.170;18.160;2024-03-02T01:26:23;100645.33;;;6.76;100.00
81299;BME280;70766;53.170;18.160;2024-03-02T01:28:52;100645.48;;;6.75;100.00
81299;BME280;70766;53.170;18.160;2024-03-02T01:31:20;100647.97;;;6.73;100.00
81299;BME280;70766;53.170;18.160;2024-03-02T01:33:48;100646.90;;;6.73;100.00
81299;BME280;70766;53.170;18.160;2024-03-02T01:36:16;100644.42;;;6.73;100.00
81299;BME280;70766;53.170;18.160;2024-03-02T01:38:44;100641.07;;;6.76;100.00
81299;BME280;70766;53.170;18.160;2024-03-02T01:41:14;100634.30;;;6.76;100.00
81299;BME280;70766;53.170;18.160;2024-03-02T01:43:46;100628.02;;;6.76;100.00
81299;BME280;70766;53.170;18.160;2024-03-02T01:46:14;100619.98;;;6.75;100.00
81299;BME280;70766;53.170;18.160;2024-03-02T01:48:43;100617.39;;;6.76;100.00
81299;BME280;70766;53.170;18.160;2024-03-02T01:51:11;100613.95;;;6.76;100.00
81299;BME280;70766;53.170;18.160;2024-03-02T01:53:40;100618.41;;;6.75;100.00
81299;BME280;70766;53.170;18.160;2024-03-02T01:56:08;100613.50;;;6.73;100.00
81299;BME280;70766;53.170;18.160;2024-03-02T01:58:37;100617.42;;;6.70;100.00
81299;BME280;70766;53.170;18.160;2024-03-02T02:01:05;100624.72;;;6.70;100.00
81299;BME280;70766;53.170;18.160;2024-03-02T02:03:33;100629.82;;;6.69;100.00
81299;BME280;70766;53.170;18.160;2024-03-02T02:06:02;100628.10;;;6.73;100.00
81299;BME280;70766;53.170;18.160;2024-03-02T02:08:30;100627.48;;;6.78;100.00
81299;BME280;70766;53.170;18.160;2024-03-02T02:10:58;100628.27;;;6.73;100.00
81299;BME280;70766;53.170;18.160;2024-03-02T02:13:27;100624.81;;;6.71;100.00
81299;BME280;70766;53.170;18.160;2024-03-02T02:15:55;100624.69;;;6.69;100.00
81299;BME280;70766;53.170;18.160;2024-03-02T02:18:23;100625.14;;;6.69;100.00
81299;BME280;70766;53.170;18.160;2024-03-02T02:20:52;100629.20;;;6.69;100.00
81299;BME280;70766;53.170;18.160;2024-03-02T02:23:20;100630.71;;;6.68;100.00
81299;BME280;70766;53.170;18.160;2024-03-02T02:25:49;100628.53;;;6.67;100.00
81299;BME280;70766;53.170;18.160;2024-03-02T02:28:18;100623.20;;;6.63;100.00
81299;BME280;70766;53.170;18.160;2024-03-02T02:30:46;100622.36;;;6.56;100.00
81299;BME280;70766;53.170;18.160;2024-03-02T02:33:15;100624.61;;;6.50;100.00
81299;BME280;70766;53.170;18.160;2024-03-02T02:35:43;100622.27;;;6.48;100.00
81299;BME280;70766;53.170;18.160;2024-03-02T02:38:12;100625.83;;;6.46;100.00
81299;BME280;70766;53.170;18.160;2024-03-02T02:40:40;100628.61;;;6.47;100.00
81299;BME280;70766;53.170;18.160;2024-03-02T02:43:08;100624.73;;;6.48;100.00
81299;BME280;70766;53.170;18.160;2024-03-02T02:45:36;100625.25;;;6.48;100.00
81299;BME280;70766;53.170;18.160;2024-03-02T02:48:04;100629.08;;;6.51;100.00
81299;BME280;70766;53.170;18.160;2024-03-02T02:50:35;100622.11;;;6.55;100.00
81299;BME280;70766;53.170;18.160;2024-03-02T02:53:03;100622.41;;;6.56;100.00
81299;BME280;70766;53.170;18.160;2024-03-02T02:55:31;100623.46;;;6.55;100.00
81299;BME280;70766;53.170;18.160;2024-03-02T02:57:59;100625.52;;;6.54;100.00
81299;BME280;70766;53.170;18.160;2024-03-02T03:00:27;100624.69;;;6.52;100.00
81299;BME280;70766;53.170;18.160;2024-03-02T03:02:56;100626.67;;;6.48;100.00
81299;BME280;70766;53.170;18.160;2024-03-02T03:05:24;100624.22;;;6.43;100.00
81299;BME280;70766;53.170;18.160;2024-03-02T03:07:52;100625.20;;;6.41;100.00
81299;BME280;70766;53.170;18.160;2024-03-02T03:10:20;100628.86;;;6.34;100.00
81299;BME280;70766;53.170;18.160;2024-03-02T03:12:51;100630.49;;;6.27;100.00
81299;BME280;70766;53.170;18.160;2024-03-02T03:15:19;100627.86;;;6.19;100.00
81299;BME280;70766;53.170;18.160;2024-03-02T03:17:48;100629.23;;;6.11;100.00
81299;BME280;70766;53.170;18.160;2024-03-02T03:20:16;100629.06;;;6.09;100.00
81299;BME280;70766;53.170;18.160;2024-03-02T03:22:45;100632.02;;;6.09;100.00
81299;BME280;70766;53.170;18.160;2024-03-02T03:25:13;100637.47;;;6.08;100.00
81299;BME280;70766;53.170;18.160;2024-03-02T03:27:41;100631.80;;;6.08;100.00
81299;BME280;70766;53.170;18.160;2024-03-02T03:30:10;100632.67;;;6.12;100.00
81299;BME280;70766;53.170;18.160;2024-03-02T03:32:39;100636.00;;;6.15;100.00
81299;BME280;70766;53.170;18.160;2024-03-02T03:35:07;100628.80;;;6.18;100.00
81299;BME280;70766;53.170;18.160;2024-03-02T03:37:35;100623.83;;;6.21;100.00
81299;BME280;70766;53.170;18.160;2024-03-02T03:40:04;100618.85;;;6.21;100.00
81299;BME280;70766;53.170;18.160;2024-03-02T03:42:39;100625.22;;;6.23;100.00
81299;BME280;70766;53.170;18.160;2024-03-02T03:45:08;100617.85;;;6.26;100.00
81299;BME280;70766;53.170;18.160;2024-03-02T03:47:36;100615.02;;;6.29;100.00
81299;BME280;70766;53.170;18.160;2024-03-02T03:50:05;100621.46;;;6.30;100.00
81299;BME280;70766;53.170;18.160;2024-03-02T03:52:35;100615.41;;;6.29;100.00
81299;BME280;70766;53.170;18.160;2024-03-02T03:55:04;100613.12;;;6.32;100.00
81299;BME280;70766;53.170;18.160;2024-03-02T03:57:33;100611.80;;;6.34;100.00
81299;BME280;70766;53.170;18.160;2024-03-02T04:00:03;100610.34;;;6.36;100.00
81299;BME280;70766;53.170;18.160;2024-03-02T04:02:39;100608.04;;;6.36;100.00
81299;BME280;70766;53.170;18.160;2024-03-02T04:05:07;100600.38;;;6.37;100.00
81299;BME280;70766;53.170;18.160;2024-03-02T04:07:39;100602.59;;;6.38;100.00
81299;BME280;70766;53.170;18.160;2024-03-02T04:10:10;100600.54;;;6.40;100.00
81299;BME280;70766;53.170;18.160;2024-03-02T04:12:39;100599.48;;;6.40;100.00
81299;BME280;70766;53.170;18.160;2024-03-02T04:15:07;100603.91;;;6.41;100.00
81299;BME280;70766;53.170;18.160;2024-03-02T04:17:36;100596.70;;;6.41;100.00
81299;BME280;70766;53.170;18.160;2024-03-02T04:20:05;100600.21;;;6.41;100.00
81299;BME280;70766;53.170;18.160;2024-03-02T04:22:34;100596.37;;;6.41;100.00
81299;BME280;70766;53.170;18.160;2024-03-02T04:25:04;100598.06;;;6.43;100.00
81299;BME280;70766;53.170;18.160;2024-03-02T04:27:35;100597.98;;;6.43;100.00
81299;BME280;70766;53.170;18.160;2024-03-02T04:30:05;100595.42;;;6.44;100.00
81299;BME280;70766;53.170;18.160;2024-03-02T04:32:33;100594.77;;;6.45;100.00
81299;BME280;70766;53.170;18.160;2024-03-02T04:35:02;100601.34;;;6.45;100.00
81299;BME280;70766;53.170;18.160;2024-03-02T04:37:30;100599.98;;;6.44;100.00
81299;BME280;70766;53.170;18.160;2024-03-02T04:39:59;100593.18;;;6.45;100.00
81299;BME280;70766;53.170;18.160;2024-03-02T04:42:27;100589.12;;;6.44;100.00
81299;BME280;70766;53.170;18.160;2024-03-02T04:44:55;100585.83;;;6.48;100.00
81299;BME280;70766;53.170;18.160;2024-03-02T04:47:23;100593.80;;;6.47;100.00
81299;BME280;70766;53.170;18.160;2024-03-02T04:49:51;100594.85;;;6.47;100.00
81299;BME280;70766;53.170;18.160;2024-03-02T04:52:19;100604.33;;;6.48;100.00
81299;BME280;70766;53.170;18.160;2024-03-02T04:54:47;100601.71;;;6.47;100.00
81299;BME280;70766;53.170;18.160;2024-03-02T04:57:36;100612.41;;;6.47;100.00
81299;BME280;70766;53.170;18.160;2024-03-02T05:00:04;100601.18;;;6.47;100.00
81299;BME280;70766;53.170;18.160;2024-03-02T05:02:35;100605.11;;;6.47;100.00
81299;BME280;70766;53.170;18.160;2024-03-02T05:05:03;100607.42;;;6.49;100.00
81299;BME280;70766;53.170;18.160;2024-03-02T05:07:31;100605.62;;;6.50;100.00
81299;BME280;70766;53.170;18.160;2024-03-02T05:09:59;100609.64;;;6.51;100.00
81299;BME280;70766;53.170;18.160;2024-03-02T05:12:28;100614.89;;;6.51;100.00
81299;BME280;70766;53.170;18.160;2024-03-02T05:15:13;100617.06;;;6.52;100.00
81299;BME280;70766;53.170;18.160;2024-03-02T05:17:43;100622.39;;;6.52;100.00
81299;BME280;70766;53.170;18.160;2024-03-02T05:20:11;100627.45;;;6.53;100.00
81299;BME280;70766;53.170;18.160;2024-03-02T05:22:39;100635.52;;;6.53;100.00
81299;BME280;70766;53.170;18.160;2024-03-02T05:25:08;100637.09;;;6.55;100.00
81299;BME280;70766;53.170;18.160;2024-03-02T05:27:38;100637.66;;;6.55;100.00
81299;BME280;70766;53.170;18.160;2024-03-02T05:30:07;100635.80;;;6.55;100.00
81299;BME280;70766;53.170;18.160;2024-03-02T05:32:35;100640.58;;;6.57;100.00
81299;BME280;70766;53.170;18.160;2024-03-02T05:35:04;100642.09;;;6.55;100.00
81299;BME280;70766;53.170;18.160;2024-03-02T05:37:33;100642.83;;;6.55;100.00
81299;BME280;70766;53.170;18.160;2024-03-02T05:40:02;100641.06;;;6.56;100.00
81299;BME280;70766;53.170;18.160;2024-03-02T05:42:30;100639.39;;;6.57;100.00
81299;BME280;70766;53.170;18.160;2024-03-02T05:44:59;100640.50;;;6.58;100.00
81299;BME280;70766;53.170;18.160;2024-03-02T05:47:27;100641.40;;;6.56;100.00
81299;BME280;70766;53.170;18.160;2024-03-02T05:49:56;100641.64;;;6.56;100.00
81299;BME280;70766;53.170;18.160;2024-03-02T05:52:24;100651.00;;;6.56;100.00
81299;BME280;70766;53.170;18.160;2024-03-02T05:54:52;100656.54;;;6.57;100.00
81299;BME280;70766;53.170;18.160;2024-03-02T05:57:20;100658.68;;;6.57;100.00
81299;BME280;70766;53.170;18.160;2024-03-02T06:00:07;100666.52;;;6.60;100.00
81299;BME280;70766;53.170;18.160;2024-03-02T06:02:39;100662.63;;;6.61;100.00
81299;BME280;70766;53.170;18.160;2024-03-02T06:05:08;100661.14;;;6.61;100.00
81299;BME280;70766;53.170;18.160;2024-03-02T06:07:37;100668.86;;;6.65;100.00
81299;BME280;70766;53.170;18.160;2024-03-02T06:10:05;100671.16;;;6.65;100.00
81299;BME280;70766;53.170;18.160;2024-03-02T06:12:39;100673.36;;;6.67;100.00
81299;BME280;70766;53.170;18.160;2024-03-02T06:15:08;100669.16;;;6.70;100.00
81299;BME280;70766;53.170;18.160;2024-03-02T06:17:36;100671.31;;;6.74;100.00
81299;BME280;70766;53.170;18.160;2024-03-02T06:20:05;100672.17;;;6.77;100.00
81299;BME280;70766;53.170;18.160;2024-03-02T06:22:36;100675.55;;;6.78;100.00
81299;BME280;70766;53.170;18.160;2024-03-02T06:25:05;100671.23;;;6.79;100.00
81299;BME280;70766;53.170;18.160;2024-03-02T06:27:33;100669.92;;;6.81;100.00
81299;BME280;70766;53.170;18.160;2024-03-02T06:30:02;100680.72;;;6.81;100.00
81299;BME280;70766;53.170;18.160;2024-03-02T06:32:32;100679.45;;;6.81;100.00
81299;BME280;70766;53.170;18.160;2024-03-02T06:35:00;100676.29;;;6.81;100.00
81299;BME280;70766;53.170;18.160;2024-03-02T06:37:28;100674.82;;;6.83;100.00
81299;BME280;70766;53.170;18.160;2024-03-02T06:39:57;100681.67;;;6.83;100.00
81299;BME280;70766;53.170;18.160;2024-03-02T06:42:25;100681.26;;;6.84;100.00
81299;BME280;70766;53.170;18.160;2024-03-02T06:44:54;100682.73;;;6.83;100.00
81299;BME280;70766;53.170;18.160;2024-03-02T06:47:22;100676.00;;;6.82;100.00
81299;BME280;70766;53.170;18.160;2024-03-02T06:49:50;100673.33;;;6.82;100.00
81299;BME280;70766;53.170;18.160;2024-03-02T06:52:19;100674.78;;;6.83;100.00
81299;BME280;70766;53.170;18.160;2024-03-02T06:54:52;100667.11;;;6.84;100.00
81299;BME280;70766;53.170;18.160;2024-03-02T06:57:20;100658.77;;;6.90;100.00
81299;BME280;70766;53.170;18.160;2024-03-02T06:59:50;100653.83;;;6.96;100.00
81299;BME280;70766;53.170;18.160;2024-03-02T07:02:20;100648.70;;;7.03;100.00
81299;BME280;70766;53.170;18.160;2024-03-02T07:04:48;100650.46;;;7.11;100.00
81299;BME280;70766;53.170;18.160;2024-03-02T07:07:16;100660.12;;;7.15;100.00
81299;BME280;70766;53.170;18.160;2024-03-02T07:09:45;100676.75;;;7.17;100.00
81299;BME280;70766;53.170;18.160;2024-03-02T07:12:13;100676.39;;;7.21;100.00
81299;BME280;70766;53.170;18.160;2024-03-02T07:14:41;100666.77;;;7.27;100.00
81299;BME280;70766;53.170;18.160;2024-03-02T07:17:39;100673.99;;;7.36;100.00
81299;BME280;70766;53.170;18.160;2024-03-02T07:20:08;100675.82;;;7.44;100.00
81299;BME280;70766;53.170;18.160;2024-03-02T07:22:36;100677.08;;;7.53;100.00
81299;BME280;70766;53.170;18.160;2024-03-02T07:25:10;100672.88;;;7.61;100.00
81299;BME280;70766;53.170;18.160;2024-03-02T07:27:58;100668.63;;;7.70;100.00
81299;BME280;70766;53.170;18.160;2024-03-02T07:30:27;100681.15;;;7.79;100.00
81299;BME280;70766;53.170;18.160;2024-03-02T07:32:57;100687.42;;;7.87;100.00
81299;BME280;70766;53.170;18.160;2024-03-02T07:35:26;100699.91;;;7.95;100.00
81299;BME280;70766;53.170;18.160;2024-03-02T07:38:02;100703.91;;;8.04;100.00
81299;BME280;70766;53.170;18.160;2024-03-02T07:40:30;100706.39;;;8.17;100.00
81299;BME280;70766;53.170;18.160;2024-03-02T07:42:59;100697.87;;;8.39;100.00
81299;BME280;70766;53.170;18.160;2024-03-02T07:45:28;100695.98;;;8.57;100.00
81299;BME280;70766;53.170;18.160;2024-03-02T07:47:56;100696.64;;;8.71;100.00
81299;BME280;70766;53.170;18.160;2024-03-02T07:50:24;100697.13;;;8.88;100.00
81299;BME280;70766;53.170;18.160;2024-03-02T07:52:52;100693.45;;;9.15;100.00
81299;BME280;70766;53.170;18.160;2024-03-02T07:55:20;100687.61;;;9.41;100.00
81299;BME280;70766;53.170;18.160;2024-03-02T07:57:49;100684.56;;;9.73;100.00
81299;BME280;70766;53.170;18.160;2024-03-02T08:00:17;100685.86;;;10.09;100.00
81299;BME280;70766;53.170;18.160;2024-03-02T08:02:46;100682.24;;;10.24;100.00
81299;BME280;70766;53.170;18.160;2024-03-02T08:05:14;100679.42;;;10.41;100.00
81299;BME280;70766;53.170;18.160;2024-03-02T08:07:44;100687.42;;;10.59;100.00
81299;BME280;70766;53.170;18.160;2024-03-02T08:10:13;100690.48;;;10.71;100.00
81299;BME280;70766;53.170;18.160;2024-03-02T08:12:41;100694.01;;;10.83;100.00
81299;BME280;70766;53.170;18.160;2024-03-02T08:15:09;100700.60;;;10.77;100.00
81299;BME280;70766;53.170;18.160;2024-03-02T08:17:39;100704.40;;;10.74;100.00
81299;BME280;70766;53.170;18.160;2024-03-02T08:20:12;100716.44;;;10.67;100.00
81299;BME280;70766;53.170;18.160;2024-03-02T08:22:41;100717.69;;;10.62;100.00
81299;BME280;70766;53.170;18.160;2024-03-02T08:25:09;100724.65;;;10.60;100.00
81299;BME280;70766;53.170;18.160;2024-03-02T08:27:41;100720.09;;;10.64;99.18
81299;BME280;70766;53.170;18.160;2024-03-02T08:30:10;100717.66;;;10.40;98.44
81299;BME280;70766;53.170;18.160;2024-03-02T08:32:38;100716.86;;;10.19;100.00
81299;BME280;70766;53.170;18.160;2024-03-02T08:35:08;100710.34;;;10.23;100.00
81299;BME280;70766;53.170;18.160;2024-03-02T08:37:39;100705.81;;;10.54;100.00
81299;BME280;70766;53.170;18.160;2024-03-02T08:40:08;100700.42;;;10.78;99.93
81299;BME280;70766;53.170;18.160;2024-03-02T08:42:36;100700.67;;;10.89;99.47
81299;BME280;70766;53.170;18.160;2024-03-02T08:45:05;100706.23;;;11.23;98.08
81299;BME280;70766;53.170;18.160;2024-03-02T08:47:34;100708.82;;;11.48;96.74
81299;BME280;70766;53.170;18.160;2024-03-02T08:50:02;100712.52;;;11.63;93.81
81299;BME280;70766;53.170;18.160;2024-03-02T08:52:31;100707.50;;;11.64;93.62
81299;BME280;70766;53.170;18.160;2024-03-02T08:55:00;100710.49;;;11.57;94.01
81299;BME280;70766;53.170;18.160;2024-03-02T08:57:28;100714.06;;;11.37;95.33
81299;BME280;70766;53.170;18.160;2024-03-02T08:59:56;100720.09;;;11.15;94.98
81299;BME280;70766;53.170;18.160;2024-03-02T09:02:24;100728.77;;;10.89;95.98
81299;BME280;70766;53.170;18.160;2024-03-02T09:04:53;100730.34;;;10.63;95.94
81299;BME280;70766;53.170;18.160;2024-03-02T09:07:21;100731.25;;;10.54;97.06
81299;BME280;70766;53.170;18.160;2024-03-02T09:09:49;100727.36;;;10.74;96.77
81299;BME280;70766;53.170;18.160;2024-03-02T09:12:18;100731.46;;;11.12;95.88
81299;BME280;70766;53.170;18.160;2024-03-02T09:14:47;100725.64;;;11.46;93.37
81299;BME280;70766;53.170;18.160;2024-03-02T09:17:16;100726.77;;;11.65;92.78
81299;BME280;70766;53.170;18.160;2024-03-02T09:19:47;100722.27;;;11.83;92.49
81299;BME280;70766;53.170;18.160;2024-03-02T09:22:16;100726.56;;;11.80;90.95
81299;BME280;70766;53.170;18.160;2024-03-02T09:24:44;100733.35;;;11.65;91.00
81299;BME280;70766;53.170;18.160;2024-03-02T09:27:12;100737.64;;;11.68;91.10
81299;BME280;70766;53.170;18.160;2024-03-02T09:29:40;100733.98;;;11.55;90.98
81299;BME280;70766;53.170;18.160;2024-03-02T09:32:12;100723.50;;;11.46;92.36
81299;BME280;70766;53.170;18.160;2024-03-02T09:34:41;100720.93;;;11.49;91.00
81299;BME280;70766;53.170;18.160;2024-03-02T09:37:09;100717.58;;;11.36;91.31
81299;BME280;70766;53.170;18.160;2024-03-02T09:39:37;100710.36;;;11.50;92.32
81299;BME280;70766;53.170;18.160;2024-03-02T09:42:06;100714.20;;;11.73;91.71
81299;BME280;70766;53.170;18.160;2024-03-02T09:44:34;100722.59;;;11.99;90.70
81299;BME280;70766;53.170;18.160;2024-03-02T09:47:03;100721.17;;;12.10;89.06
81299;BME280;70766;53.170;18.160;2024-03-02T09:49:31;100723.30;;;12.18;88.30
81299;BME280;70766;53.170;18.160;2024-03-02T09:51:59;100721.70;;;12.17;88.96
81299;BME280;70766;53.170;18.160;2024-03-02T09:54:29;100722.61;;;12.49;86.38
81299;BME280;70766;53.170;18.160;2024-03-02T09:56:57;100726.77;;;12.37;85.34
81299;BME280;70766;53.170;18.160;2024-03-02T09:59:26;100724.35;;;12.37;85.09
81299;BME280;70766;53.170;18.160;2024-03-02T10:02:00;100722.08;;;12.32;84.30
81299;BME280;70766;53.170;18.160;2024-03-02T10:04:30;100718.52;;;12.11;85.06
81299;BME280;70766;53.170;18.160;2024-03-02T10:09:44;100736.84;;;12.73;83.84
81299;BME280;70766;53.170;18.160;2024-03-02T10:12:15;100733.48;;;12.91;83.00
81299;BME280;70766;53.170;18.160;2024-03-02T10:14:44;100727.23;;;12.91;81.97
81299;BME280;70766;53.170;18.160;2024-03-02T10:17:14;100726.64;;;13.10;81.52
81299;BME280;70766;53.170;18.160;2024-03-02T10:19:43;100729.11;;;13.27;82.19
81299;BME280;70766;53.170;18.160;2024-03-02T10:22:11;100715.19;;;13.48;81.87
81299;BME280;70766;53.170;18.160;2024-03-02T10:24:41;100711.59;;;13.79;80.43
81299;BME280;70766;53.170;18.160;2024-03-02T10:27:17;100713.42;;;14.12;77.18
81299;BME280;70766;53.170;18.160;2024-03-02T10:29:46;100710.50;;;14.15;76.85
81299;BME280;70766;53.170;18.160;2024-03-02T10:32:15;100712.78;;;14.33;75.68
81299;BME280;70766;53.170;18.160;2024-03-02T10:34:45;100708.59;;;14.47;74.28
81299;BME280;70766;53.170;18.160;2024-03-02T10:37:15;100706.69;;;14.56;74.98
81299;BME280;70766;53.170;18.160;2024-03-02T10:39:46;100704.75;;;14.65;74.19
81299;BME280;70766;53.170;18.160;2024-03-02T10:42:15;100704.83;;;14.67;73.79
81299;BME280;70766;53.170;18.160;2024-03-02T10:44:46;100696.88;;;14.70;74.48
81299;BME280;70766;53.170;18.160;2024-03-02T10:47:15;100693.94;;;14.78;73.43
81299;BME280;70766;53.170;18.160;2024-03-02T10:49:46;100704.13;;;14.96;73.37
81299;BME280;70766;53.170;18.160;2024-03-02T10:52:16;100698.30;;;14.96;71.63
81299;BME280;70766;53.170;18.160;2024-03-02T10:54:45;100692.14;;;14.59;71.70
81299;BME280;70766;53.170;18.160;2024-03-02T10:57:17;100695.98;;;14.55;73.43
81299;BME280;70766;53.170;18.160;2024-03-02T10:59:56;100692.39;;;15.00;73.03
81299;BME280;70766;53.170;18.160;2024-03-02T11:02:27;100696.93;;;15.23;71.42
81299;BME280;70766;53.170;18.160;2024-03-02T11:04:56;100694.53;;;15.20;73.01
81299;BME280;70766;53.170;18.160;2024-03-02T11:07:28;100694.80;;;15.41;70.61
81299;BME280;70766;53.170;18.160;2024-03-02T11:09:59;100693.08;;;15.37;69.56
81299;BME280;70766;53.170;18.160;2024-03-02T11:15:00;100683.20;;;15.29;70.03
81299;BME280;70766;53.170;18.160;2024-03-02T11:17:29;100684.65;;;15.48;70.46
81299;BME280;70766;53.170;18.160;2024-03-02T11:19:57;100682.70;;;15.61;68.70
81299;BME280;70766;53.170;18.160;2024-03-02T11:22:26;100684.35;;;15.54;68.46
81299;BME280;70766;53.170;18.160;2024-03-02T11:24:55;100684.31;;;15.54;69.72
81299;BME280;70766;53.170;18.160;2024-03-02T11:33:08;100674.97;;;15.71;68.40
81299;BME280;70766;53.170;18.160;2024-03-02T11:35:44;100677.60;;;15.62;68.13
81299;BME280;70766;53.170;18.160;2024-03-02T11:38:18;100674.91;;;15.70;67.60
81299;BME280;70766;53.170;18.160;2024-03-02T11:40:47;100678.16;;;15.72;67.11
81299;BME280;70766;53.170;18.160;2024-03-02T11:43:16;100670.92;;;15.65;67.27
81299;BME280;70766;53.170;18.160;2024-03-02T11:45:44;100675.86;;;15.55;67.34
81299;BME280;70766;53.170;18.160;2024-03-02T11:48:15;100679.91;;;15.58;67.61
81299;BME280;70766;53.170;18.160;2024-03-02T11:50:49;100672.48;;;15.71;66.98
81299;BME280;70766;53.170;18.160;2024-03-02T11:53:18;100671.52;;;15.52;66.51
81299;BME280;70766;53.170;18.160;2024-03-02T11:55:47;100667.80;;;15.35;67.59
81299;BME280;70766;53.170;18.160;2024-03-02T11:58:17;100668.30;;;15.38;67.72
81299;BME280;70766;53.170;18.160;2024-03-02T12:00:46;100669.67;;;15.56;67.36
81299;BME280;70766;53.170;18.160;2024-03-02T12:03:15;100669.41;;;15.74;67.54
81299;BME280;70766;53.170;18.160;2024-03-02T12:05:43;100664.63;;;15.88;66.13
81299;BME280;70766;53.170;18.160;2024-03-02T12:08:12;100665.56;;;15.81;65.66
81299;BME280;70766;53.170;18.160;2024-03-02T12:10:40;100671.80;;;15.83;66.74
81299;BME280;70766;53.170;18.160;2024-03-02T12:13:10;100664.27;;;16.00;66.48
81299;BME280;70766;53.170;18.160;2024-03-02T12:15:40;100663.96;;;16.23;66.92
81299;BME280;70766;53.170;18.160;2024-03-02T12:18:08;100662.55;;;16.44;66.36
81299;BME280;70766;53.170;18.160;2024-03-02T12:20:43;100664.16;;;16.30;66.70
81299;BME280;70766;53.170;18.160;2024-03-02T12:23:12;100665.63;;;16.23;67.30
81299;BME280;70766;53.170;18.160;2024-03-02T12:25:42;100665.19;;;16.09;67.37
81299;BME280;70766;53.170;18.160;2024-03-02T12:28:10;100664.59;;;15.50;68.86
81299;BME280;70766;53.170;18.160;2024-03-02T12:30:39;100667.00;;;14.98;70.65
81299;BME280;70766;53.170;18.160;2024-03-02T12:33:07;100663.47;;;15.01;70.72
81299;BME280;70766;53.170;18.160;2024-03-02T12:35:36;100660.76;;;14.95;71.02
81299;BME280;70766;53.170;18.160;2024-03-02T12:38:04;100655.80;;;14.90;71.08
81299;BME280;70766;53.170;18.160;2024-03-02T12:40:33;100655.36;;;14.89;71.59
81299;BME280;70766;53.170;18.160;2024-03-02T12:43:01;100653.40;;;14.69;72.02
81299;BME280;70766;53.170;18.160;2024-03-02T12:45:30;100651.46;;;14.90;71.57
81299;BME280;70766;53.170;18.160;2024-03-02T12:48:00;100651.63;;;14.54;72.33
81299;BME280;70766;53.170;18.160;2024-03-02T12:50:30;100653.50;;;14.53;72.72
81299;BME280;70766;53.170;18.160;2024-03-02T12:52:58;100654.33;;;14.67;72.13
81299;BME280;70766;53.170;18.160;2024-03-02T12:55:27;100654.95;;;14.57;72.81
81299;BME280;70766;53.170;18.160;2024-03-02T12:57:57;100653.12;;;14.42;73.50
81299;BME280;70766;53.170;18.160;2024-03-02T13:00:28;100653.38;;;14.41;73.70
81299;BME280;70766;53.170;18.160;2024-03-02T13:02:58;100656.58;;;14.52;73.34
81299;BME280;70766;53.170;18.160;2024-03-02T13:05:30;100659.86;;;14.47;73.36